Time;durP1;ratioP1;P1;durP2;ratioP2;P2;SDS_P1;SDS_P2;PMS_P1;PMS_P2;Temp;Humidity;BMP_temperature;BMP_pressure;BME280_temperature;BME280_humidity;BME280_pressure;Samples;Min_cycle;Max_cycle;Signal;HPM_P1;HPM_P2
2021/08/03 00:00:16;;;;;;;2.47;0.30;;;;;;;18.46;68.54;99266.72;1761766;80;21508;-54
2021/08/03 00:02:45;;;;;;;2.30;0.30;;;;;;;18.44;68.52;99264.66;1765007;80;21663;-55
2021/08/03 00:05:23;;;;;;;0.40;0.30;;;;;;;18.42;68.53;99267.52;1762843;80;22217;-54
2021/08/03 00:07:55;;;;;;;1.02;0.30;;;;;;;18.40;68.58;99268.14;1762750;80;21014;-53
2021/08/03 00:10:22;;;;;;;0.68;0.30;;;;;;;18.37;68.59;99268.92;1744126;80;21603;-54
2021/08/03 00:12:52;;;;;;;0.72;0.35;;;;;;;18.35;68.62;99267.69;1766352;80;21013;-52
2021/08/03 00:15:21;;;;;;;5.30;0.40;;;;;;;18.35;68.66;99270.91;1763882;80;22565;-53
2021/08/03 00:17:48;;;;;;;0.47;0.30;;;;;;;18.33;68.78;99269.68;1763247;80;21003;-53
2021/08/03 00:20:16;;;;;;;1.07;0.30;;;;;;;18.33;68.79;99266.09;1759260;80;21116;-54
2021/08/03 00:22:43;;;;;;;5.75;0.80;;;;;;;18.31;68.75;99267.58;1762253;80;21079;-53
2021/08/03 00:25:11;;;;;;;1.00;0.35;;;;;;;18.30;68.88;99263.13;1769550;80;21561;-53
2021/08/03 00:27:37;;;;;;;2.42;0.40;;;;;;;18.28;68.95;99267.00;1767039;80;20926;-55
2021/08/03 00:30:07;;;;;;;1.17;0.30;;;;;;;18.25;68.90;99263.17;1760924;80;21629;-53
2021/08/03 00:32:33;;;;;;;2.87;0.40;;;;;;;18.22;68.89;99268.38;1765247;80;20926;-54
2021/08/03 00:35:00;;;;;;;0.47;0.30;;;;;;;18.20;68.89;99279.94;1762716;80;21044;-53
2021/08/03 00:37:26;;;;;;;1.27;0.40;;;;;;;18.17;69.06;99273.38;1763571;80;21542;-55
2021/08/03 00:39:53;;;;;;;1.87;0.35;;;;;;;18.15;69.16;99275.37;1762949;80;22225;-54
2021/08/03 00:42:19;;;;;;;5.10;0.70;;;;;;;18.14;69.22;99273.14;1760089;80;21484;-53
2021/08/03 00:44:49;;;;;;;1.57;0.40;;;;;;;18.13;69.40;99277.35;1759840;80;21511;-53
2021/08/03 00:47:21;;;;;;;0.40;0.40;;;;;;;18.12;69.45;99271.04;1757070;79;21515;-54
2021/08/03 00:49:49;;;;;;;0.60;0.30;;;;;;;18.10;69.36;99271.70;1759156;80;21123;-54
2021/08/03 00:52:16;;;;;;;0.40;0.40;;;;;;;18.09;69.30;99275.41;1762776;80;20891;-53
2021/08/03 00:54:43;;;;;;;10.90;0.93;;;;;;;18.09;69.27;99281.36;1757925;80;20898;-55
2021/08/03 00:57:11;;;;;;;1.37;0.40;;;;;;;18.06;69.34;99274.30;1761644;80;20859;-54
2021/08/03 00:59:38;;;;;;;0.40;0.37;;;;;;;18.03;69.47;99288.17;1761087;80;21438;-54
2021/08/03 01:02:05;;;;;;;0.65;0.37;;;;;;;18.03;69.35;99294.98;1763008;80;21170;-54
2021/08/03 01:04:32;;;;;;;3.52;0.30;;;;;;;18.01;69.31;99295.64;1761034;80;20881;-54
2021/08/03 01:07:24;;;;;;;0.47;0.30;;;;;;;18.00;69.27;99293.91;1739616;80;21409;-55
2021/08/03 01:10:22;;;;;;;0.50;0.40;;;;;;;17.99;69.34;99289.45;1679296;80;21348;-54
2021/08/03 01:13:16;;;;;;;0.95;0.40;;;;;;;17.99;69.34;99291.30;1763481;80;21392;-54
2021/08/03 01:16:03;;;;;;;0.57;0.40;;;;;;;17.96;69.31;99304.68;1763511;80;20890;-55
2021/08/03 01:18:37;;;;;;;2.08;0.33;;;;;;;17.92;69.36;99300.51;1760053;80;21439;-53
2021/08/03 01:21:33;;;;;;;1.45;0.50;;;;;;;17.90;69.35;99305.70;1762760;80;21472;-54
2021/08/03 01:24:30;;;;;;;0.40;0.40;;;;;;;17.86;69.37;99300.17;1760982;80;20970;-53
2021/08/03 01:27:09;;;;;;;0.40;0.30;;;;;;;17.84;69.38;99303.52;1758165;80;20902;-56
2021/08/03 01:29:35;;;;;;;0.40;0.30;;;;;;;17.81;69.42;99312.80;1763965;80;21054;-54
2021/08/03 01:32:05;;;;;;;0.33;0.30;;;;;;;17.80;69.52;99319.73;1763143;80;22210;-53
2021/08/03 01:34:33;;;;;;;0.40;0.30;;;;;;;17.78;69.60;99312.55;1759094;80;21581;-54
2021/08/03 01:37:01;;;;;;;0.47;0.40;;;;;;;17.79;69.61;99320.23;1759496;80;20937;-54
2021/08/03 01:39:33;;;;;;;0.40;0.35;;;;;;;17.78;69.62;99324.80;1762346;80;20981;-55
2021/08/03 01:41:59;;;;;;;0.80;0.50;;;;;;;17.79;69.59;99331.11;1760316;80;21065;-55
2021/08/03 01:44:27;;;;;;;1.17;0.40;;;;;;;17.78;69.51;99336.19;1757023;80;21062;-55
2021/08/03 01:46:56;;;;;;;0.45;0.40;;;;;;;17.75;69.50;99328.30;1759157;80;21323;-54
2021/08/03 01:49:22;;;;;;;2.85;0.40;;;;;;;17.71;69.51;99329.05;1759484;80;21124;-53
2021/08/03 01:51:49;;;;;;;0.30;0.30;;;;;;;17.70;69.60;99331.39;1761243;80;21093;-53
2021/08/03 01:54:16;;;;;;;0.50;0.37;;;;;;;17.68;69.60;99336.62;1760405;80;21964;-55
2021/08/03 01:56:44;;;;;;;2.83;0.40;;;;;;;17.65;69.66;99340.45;1757349;80;21108;-53
2021/08/03 01:59:11;;;;;;;1.80;0.40;;;;;;;17.64;69.78;99341.44;1761495;80;21065;-55
2021/08/03 02:01:39;;;;;;;0.42;0.40;;;;;;;17.62;69.81;99340.70;1758849;80;21379;-53
2021/08/03 02:04:07;;;;;;;0.72;0.47;;;;;;;17.61;69.82;99340.78;1759152;80;21084;-55
2021/08/03 02:06:37;;;;;;;0.40;0.40;;;;;;;17.60;69.83;99352.70;1756345;80;21824;-53
2021/08/03 02:09:07;;;;;;;0.40;0.40;;;;;;;17.55;69.80;99350.83;1757210;80;21121;-53
2021/08/03 02:11:35;;;;;;;0.40;0.30;;;;;;;17.51;69.81;99353.45;1756883;80;21045;-53
2021/08/03 02:14:03;;;;;;;0.33;0.30;;;;;;;17.46;69.86;99347.02;1761734;80;20894;-55
2021/08/03 02:16:37;;;;;;;0.50;0.35;;;;;;;17.43;69.93;99351.38;1759073;80;21709;-55
2021/08/03 02:19:07;;;;;;;0.50;0.30;;;;;;;17.38;69.90;99354.95;1755884;80;22242;-53
2021/08/03 02:21:35;;;;;;;0.47;0.33;;;;;;;17.33;69.99;99358.06;1736568;80;21016;-55
2021/08/03 02:24:03;;;;;;;0.33;0.30;;;;;;;17.30;70.15;99354.72;1757876;79;21124;-55
2021/08/03 02:26:30;;;;;;;0.30;0.30;;;;;;;17.27;70.18;99356.31;1761986;80;21025;-54
2021/08/03 02:28:57;;;;;;;0.80;0.50;;;;;;;17.23;70.22;99358.44;1758911;79;21002;-54
2021/08/03 02:31:29;;;;;;;1.95;0.40;;;;;;;17.18;70.24;99366.09;1761634;80;22803;-54
2021/08/03 02:34:16;;;;;;;0.40;0.30;;;;;;;17.13;70.35;99366.11;1759250;80;21339;-53
2021/08/03 02:36:47;;;;;;;1.20;0.30;;;;;;;17.09;70.55;99370.08;1763317;80;20943;-55
2021/08/03 02:39:16;;;;;;;0.40;0.30;;;;;;;17.07;70.76;99372.92;1762023;80;20982;-55
2021/08/03 02:41:43;;;;;;;0.60;0.40;;;;;;;17.07;70.84;99373.41;1729601;80;21079;-55
2021/08/03 02:44:10;;;;;;;0.90;0.33;;;;;;;17.07;70.94;99375.64;1665127;82;21172;-53
2021/08/03 02:46:37;;;;;;;0.80;0.37;;;;;;;17.08;71.03;99378.73;1710885;82;20985;-55
2021/08/03 02:49:12;;;;;;;0.55;0.40;;;;;;;17.09;71.05;99385.03;1684366;82;21116;-54
2021/08/03 02:51:38;;;;;;;0.40;0.40;;;;;;;17.08;71.02;99380.09;1691844;82;21157;-55
2021/08/03 02:54:35;;;;;;;1.75;0.40;;;;;;;17.07;71.03;99389.73;1692203;82;21093;-55
2021/08/03 02:57:04;;;;;;;1.85;0.37;;;;;;;17.03;71.09;99389.97;1715067;81;21264;-54
2021/08/03 02:59:34;;;;;;;1.35;0.30;;;;;;;16.99;71.17;99384.91;1691294;83;21065;-53
2021/08/03 03:02:06;;;;;;;1.17;0.40;;;;;;;16.96;71.26;99387.38;1691228;83;21064;-52
2021/08/03 03:04:40;;;;;;;3.17;0.40;;;;;;;16.95;71.37;99388.84;1690492;83;22495;-54
2021/08/03 03:07:11;;;;;;;3.15;0.35;;;;;;;16.94;71.53;99388.47;1692010;82;21081;-54
2021/08/03 03:09:39;;;;;;;0.68;0.40;;;;;;;16.94;71.71;99384.39;1680246;83;23207;-53
2021/08/03 03:12:08;;;;;;;0.50;0.50;;;;;;;16.94;71.82;99391.19;1689694;83;21056;-54
2021/08/03 03:14:38;;;;;;;1.27;0.45;;;;;;;16.92;71.95;99391.34;1689760;83;21669;-55
2021/08/03 03:17:05;;;;;;;0.65;0.40;;;;;;;16.91;72.05;99395.53;1690267;83;21121;-54
2021/08/03 03:19:33;;;;;;;0.88;0.40;;;;;;;16.91;72.13;99401.84;1691426;83;21065;-53
2021/08/03 03:22:04;;;;;;;1.05;0.40;;;;;;;16.93;72.19;99397.61;1689592;83;22535;-56
2021/08/03 03:24:33;;;;;;;1.20;0.50;;;;;;;16.95;72.23;99403.80;1689862;83;21515;-54
2021/08/03 03:27:00;;;;;;;1.17;0.40;;;;;;;16.98;72.29;99402.20;1691463;83;21695;-55
2021/08/03 03:29:26;;;;;;;1.35;0.40;;;;;;;17.01;72.33;99400.09;1689679;83;21400;-55
2021/08/03 03:31:54;;;;;;;0.55;0.40;;;;;;;17.06;72.31;99409.75;1688591;83;21750;-53
2021/08/03 03:34:21;;;;;;;1.45;0.50;;;;;;;17.09;72.36;99416.31;1691585;83;21361;-53
2021/08/03 03:36:48;;;;;;;0.50;0.40;;;;;;;17.13;72.34;99414.56;1691225;83;21074;-54
2021/08/03 03:39:15;;;;;;;0.50;0.40;;;;;;;17.16;72.25;99425.20;1687462;83;21154;-55
2021/08/03 03:41:47;;;;;;;1.42;0.50;;;;;;;17.21;72.22;99424.83;1708287;82;21861;-53
2021/08/03 03:44:14;;;;;;;0.60;0.40;;;;;;;17.25;72.20;99423.11;1693898;82;20950;-54
2021/08/03 03:46:57;;;;;;;0.88;0.50;;;;;;;17.32;72.17;99426.19;1717306;82;21058;-53
2021/08/03 03:49:26;;;;;;;0.75;0.50;;;;;;;17.37;72.09;99428.90;1700730;82;20984;-52
2021/08/03 03:51:53;;;;;;;0.75;0.50;;;;;;;17.44;72.06;99434.70;1715159;82;21085;-53
2021/08/03 03:54:31;;;;;;;0.60;0.60;;;;;;;17.52;72.00;99436.83;1734814;81;20959;-53
2021/08/03 03:57:02;;;;;;;2.35;0.50;;;;;;;17.56;71.85;99436.92;1711528;82;20937;-52
2021/08/03 03:59:32;;;;;;;0.88;0.50;;;;;;;17.61;71.70;99439.63;1713788;82;20986;-55
2021/08/03 04:02:02;;;;;;;2.87;0.50;;;;;;;17.66;71.57;99437.94;1678845;82;21921;-54
2021/08/03 04:04:28;;;;;;;0.70;0.50;;;;;;;17.68;71.47;99434.11;1693677;82;21018;-54
2021/08/03 04:06:57;;;;;;;0.70;0.53;;;;;;;17.72;71.36;99434.70;1719661;82;20989;-54
2021/08/03 04:09:24;;;;;;;0.40;0.40;;;;;;;17.78;71.39;99447.80;1719959;82;21002;-53
2021/08/03 04:11:54;;;;;;;0.55;0.40;;;;;;;17.83;71.33;99444.72;1718928;82;21857;-53
2021/08/03 04:14:24;;;;;;;5.78;0.60;;;;;;;17.89;71.32;99436.03;1716956;82;20910;-53
2021/08/03 04:16:55;;;;;;;1.55;0.53;;;;;;;17.96;71.09;99438.11;1719133;82;20926;-52
2021/08/03 04:19:21;;;;;;;0.50;0.50;;;;;;;18.02;70.86;99436.75;1702761;82;20984;-52
2021/08/03 04:21:48;;;;;;;1.98;0.60;;;;;;;18.07;70.72;99440.81;1714292;82;20987;-52
2021/08/03 04:24:15;;;;;;;1.82;0.60;;;;;;;18.12;70.54;99438.55;1713056;81;22386;-54
2021/08/03 04:26:42;;;;;;;2.08;0.50;;;;;;;18.18;70.32;99444.50;1700983;83;21778;-55
2021/08/03 04:29:08;;;;;;;0.70;0.50;;;;;;;18.24;70.25;99447.56;1706288;82;21360;-55
2021/08/03 04:31:35;;;;;;;0.62;0.60;;;;;;;18.31;70.18;99438.36;1697733;82;21061;-54
2021/08/03 04:34:01;;;;;;;2.60;0.50;;;;;;;18.37;70.06;99440.59;1730349;81;21068;-53
2021/08/03 04:36:27;;;;;;;1.05;0.50;;;;;;;18.45;69.96;99444.88;1705712;82;21802;-55
2021/08/03 04:38:54;;;;;;;3.60;0.95;;;;;;;18.53;69.83;99446.45;1697186;82;21074;-54
2021/08/03 04:41:20;;;;;;;1.22;0.60;;;;;;;18.63;69.81;99450.13;1708234;81;21062;-53
2021/08/03 04:43:47;;;;;;;1.85;0.60;;;;;;;18.72;69.53;99447.10;1762070;80;21106;-53
2021/08/03 04:46:13;;;;;;;0.50;0.50;;;;;;;18.80;69.26;99452.26;1760063;80;21041;-54
2021/08/03 04:48:40;;;;;;;0.68;0.50;;;;;;;18.87;68.97;99455.34;1762182;80;21143;-54
2021/08/03 04:51:06;;;;;;;3.77;1.10;;;;;;;18.94;68.89;99447.48;1764888;80;21041;-54
2021/08/03 04:53:34;;;;;;;3.22;0.60;;;;;;;19.01;68.61;99448.67;1760673;80;21038;-54
2021/08/03 04:56:00;;;;;;;0.72;0.50;;;;;;;19.07;68.40;99448.98;1755896;80;21089;-55
2021/08/03 04:58:26;;;;;;;0.65;0.60;;;;;;;19.12;68.20;99444.02;1762620;80;21104;-54
2021/08/03 05:00:53;;;;;;;2.60;0.60;;;;;;;19.17;68.18;99446.31;1758820;80;21545;-54
2021/08/03 05:03:19;;;;;;;0.60;0.60;;;;;;;19.24;68.15;99446.13;1757500;80;21563;-54
2021/08/03 05:05:45;;;;;;;0.70;0.70;;;;;;;19.32;67.98;99444.95;1760643;80;21112;-54
2021/08/03 05:08:12;;;;;;;2.15;0.60;;;;;;;19.39;67.84;99444.80;1757561;80;21077;-55
2021/08/03 05:10:39;;;;;;;1.27;0.70;;;;;;;19.47;67.60;99444.10;1758574;80;21141;-54
2021/08/03 05:13:05;;;;;;;0.78;0.70;;;;;;;19.54;67.39;99450.27;1755202;80;21976;-55
2021/08/03 05:15:32;;;;;;;2.58;0.98;;;;;;;19.59;66.84;99447.11;1757734;80;21038;-53
2021/08/03 05:17:59;;;;;;;0.60;0.60;;;;;;;19.65;66.81;99446.55;1762629;79;21093;-53
2021/08/03 05:20:25;;;;;;;0.70;0.50;;;;;;;19.76;66.69;99444.22;1759199;80;21788;-54
2021/08/03 05:22:52;;;;;;;2.00;0.78;;;;;;;19.84;66.50;99445.74;1760063;80;21085;-55
2021/08/03 05:25:18;;;;;;;0.90;0.75;;;;;;;19.93;66.08;99439.44;1729030;80;22282;-53
2021/08/03 05:27:45;;;;;;;0.95;0.60;;;;;;;20.00;65.80;99442.83;1756684;80;22203;-56
2021/08/03 05:30:12;;;;;;;1.30;0.70;;;;;;;20.08;65.70;99439.89;1756382;80;21018;-53
2021/08/03 05:32:38;;;;;;;1.90;0.80;;;;;;;20.14;65.73;99444.31;1757301;80;21080;-54
2021/08/03 05:35:06;;;;;;;0.72;0.70;;;;;;;20.19;65.29;99445.23;1757423;79;21089;-53
2021/08/03 05:37:32;;;;;;;1.98;1.12;;;;;;;20.21;64.99;99445.47;1759977;79;21100;-56
2021/08/03 05:40:02;;;;;;;1.45;0.75;;;;;;;20.23;64.53;99454.89;1759099;80;21090;-56
2021/08/03 05:42:27;;;;;;;1.37;0.60;;;;;;;20.26;64.78;99448.62;1723015;82;21448;-55
2021/08/03 05:44:53;;;;;;;0.95;0.70;;;;;;;20.31;64.81;99455.91;1697057;82;21077;-55
2021/08/03 05:47:20;;;;;;;0.70;0.68;;;;;;;20.38;65.00;99457.09;1704393;83;21649;-55
2021/08/03 05:49:46;;;;;;;1.05;0.70;;;;;;;20.46;64.64;99452.77;1704510;83;21158;-56
2021/08/03 05:52:12;;;;;;;0.90;0.80;;;;;;;20.55;64.30;99457.38;1698268;82;21074;-55
2021/08/03 05:54:39;;;;;;;1.70;0.80;;;;;;;20.61;63.56;99467.23;1704101;83;21116;-54
2021/08/03 05:57:05;;;;;;;1.92;0.75;;;;;;;20.66;63.25;99469.55;1705635;83;21113;-54
2021/08/03 05:59:31;;;;;;;1.70;0.82;;;;;;;20.66;63.17;99454.00;1702611;82;21383;-54
2021/08/03 06:01:58;;;;;;;3.70;0.70;;;;;;;20.71;63.21;99463.12;1705047;83;21435;-54
2021/08/03 06:04:25;;;;;;;1.10;0.80;;;;;;;20.75;63.07;99470.05;1723700;82;21521;-54
2021/08/03 06:06:51;;;;;;;2.87;1.10;;;;;;;20.77;62.86;99480.31;1721738;82;21050;-53
2021/08/03 06:09:18;;;;;;;1.12;0.70;;;;;;;20.76;62.18;99483.55;1723957;82;21149;-56
2021/08/03 06:11:48;;;;;;;1.98;0.72;;;;;;;20.75;62.10;99481.86;1719864;82;21110;-56
2021/08/03 06:14:21;;;;;;;1.70;0.70;;;;;;;20.77;61.76;99486.66;1681985;83;21571;-56
2021/08/03 06:16:53;;;;;;;1.82;0.70;;;;;;;20.82;61.99;99477.16;1686425;82;21063;-53
2021/08/03 06:19:19;;;;;;;0.60;0.60;;;;;;;20.84;61.26;99482.83;1700879;83;21137;-54
2021/08/03 06:21:45;;;;;;;1.32;0.70;;;;;;;20.87;61.29;99481.17;1701084;83;21116;-55
2021/08/03 06:24:15;;;;;;;0.65;0.65;;;;;;;20.93;61.22;99481.95;1699950;83;21406;-54
2021/08/03 06:26:43;;;;;;;1.00;0.70;;;;;;;21.00;61.49;99484.99;1702321;83;21576;-53
2021/08/03 06:29:09;;;;;;;1.10;1.00;;;;;;;21.04;61.37;99487.78;1698323;82;21082;-56
2021/08/03 06:31:36;;;;;;;1.60;0.70;;;;;;;21.09;61.29;99490.45;1696754;82;21119;-57
2021/08/03 06:34:02;;;;;;;0.75;0.68;;;;;;;21.15;61.28;99497.20;1702061;82;21130;-55
2021/08/03 06:36:29;;;;;;;2.45;1.27;;;;;;;21.20;61.43;99493.53;1703560;83;21065;-54
2021/08/03 06:38:55;;;;;;;0.62;0.62;;;;;;;21.27;61.58;99500.64;1696570;83;21130;-56
2021/08/03 06:41:32;;;;;;;0.75;0.70;;;;;;;21.33;61.02;99495.97;1699881;83;21125;-57
2021/08/03 06:44:10;;;;;;;0.88;0.70;;;;;;;21.40;60.56;99495.73;1709746;83;21576;-53
2021/08/03 06:46:37;;;;;;;3.60;0.60;;;;;;;21.46;60.05;99503.34;1700629;83;21435;-54
2021/08/03 06:49:08;;;;;;;0.70;0.68;;;;;;;21.52;59.33;99501.39;1706170;83;21136;-54
2021/08/03 06:51:37;;;;;;;1.50;0.70;;;;;;;21.58;59.14;99499.92;1762088;80;21135;-55
2021/08/03 06:54:06;;;;;;;0.70;0.70;;;;;;;21.62;58.41;99504.94;1762576;79;20930;-55
2021/08/03 06:56:44;;;;;;;0.50;0.50;;;;;;;21.67;57.44;99509.48;1765908;80;21055;-55
2021/08/03 06:59:11;;;;;;;0.93;0.60;;;;;;;21.66;56.69;99512.36;1760725;79;20899;-56
2021/08/03 07:02:02;;;;;;;0.70;0.70;;;;;;;21.68;57.31;99508.97;1762530;80;21349;-54
2021/08/03 07:04:43;;;;;;;0.75;0.70;;;;;;;21.72;57.36;99505.77;1761093;80;21073;-54
2021/08/03 07:07:10;;;;;;;0.60;0.60;;;;;;;21.77;57.69;99507.56;1758242;80;21519;-56
2021/08/03 07:09:44;;;;;;;0.72;0.60;;;;;;;21.81;57.91;99521.30;1759520;80;21879;-54
2021/08/03 07:12:11;;;;;;;0.50;0.50;;;;;;;;;;1760072;79;21100;-54
2021/08/03 07:14:38;;;;;;;1.12;0.60;;;;;;;21.88;56.54;99521.55;1756417;80;21358;-54
2021/08/03 07:17:05;;;;;;;0.70;0.60;;;;;;;21.94;56.64;99520.97;1759896;80;21091;-56
2021/08/03 07:19:32;;;;;;;1.17;0.60;;;;;;;22.01;55.83;99511.66;1760029;80;21735;-55
2021/08/03 07:21:59;;;;;;;0.60;0.60;;;;;;;22.07;54.63;99517.39;1761799;80;20892;-55
2021/08/03 07:24:25;;;;;;;0.80;0.50;;;;;;;22.13;55.00;99514.53;1764287;80;21026;-55
2021/08/03 07:26:52;;;;;;;0.95;0.60;;;;;;;22.20;56.24;99512.39;1761390;79;21069;-55
2021/08/03 07:29:19;;;;;;;0.60;0.60;;;;;;;22.31;56.96;99514.06;1761015;80;21900;-53
2021/08/03 07:31:46;;;;;;;0.70;0.60;;;;;;;22.38;56.00;99518.42;1760493;80;21037;-54
2021/08/03 07:34:13;;;;;;;1.80;0.72;;;;;;;22.45;55.45;99518.18;1719688;80;21000;-55
2021/08/03 07:36:40;;;;;;;1.85;0.60;;;;;;;22.49;55.82;99518.20;1758841;80;21113;-53
2021/08/03 07:39:07;;;;;;;0.78;0.60;;;;;;;22.55;55.50;99513.45;1760392;80;21081;-54
2021/08/03 07:41:34;;;;;;;0.57;0.57;;;;;;;22.56;55.22;99516.56;1759942;80;21133;-56
2021/08/03 07:44:03;;;;;;;0.78;0.62;;;;;;;22.62;55.37;99515.95;1761567;80;21472;-55
2021/08/03 07:46:30;;;;;;;0.50;0.50;;;;;;;22.67;55.56;99514.10;1766665;80;21625;-55
2021/08/03 07:48:57;;;;;;;0.60;0.50;;;;;;;22.79;55.84;99511.52;1763439;79;21025;-54
2021/08/03 07:51:25;;;;;;;0.50;0.50;;;;;;;22.90;54.85;99508.52;1765055;80;21136;-58
2021/08/03 07:53:51;;;;;;;0.98;0.60;;;;;;;22.96;54.07;99514.77;1766502;80;21127;-57
2021/08/03 07:56:18;;;;;;;0.60;0.60;;;;;;;23.00;53.79;99516.16;1764870;80;21061;-54
2021/08/03 07:58:44;;;;;;;0.80;0.60;;;;;;;23.01;53.48;99519.26;1759278;80;21072;-56
2021/08/03 08:01:11;;;;;;;0.88;0.50;;;;;;;23.03;52.53;99513.62;1762244;80;21057;-55
2021/08/03 08:03:37;;;;;;;0.60;0.50;;;;;;;23.06;52.10;99508.65;1761327;80;21291;-55
2021/08/03 08:06:05;;;;;;;1.40;0.40;;;;;;;23.10;51.60;99508.70;1760244;80;21892;-56
2021/08/03 08:08:32;;;;;;;0.50;0.50;;;;;;;23.13;50.25;99507.02;1761346;80;21470;-54
2021/08/03 08:11:00;;;;;;;0.40;0.40;;;;;;;23.13;49.86;99505.64;1763007;80;21135;-52
2021/08/03 08:13:27;;;;;;;0.50;0.50;;;;;;;23.12;49.91;99499.80;1761352;80;21002;-56
2021/08/03 08:15:53;;;;;;;0.60;0.60;;;;;;;23.12;50.41;99508.55;1761123;80;21465;-55
2021/08/03 08:18:21;;;;;;;1.07;0.72;;;;;;;23.14;50.63;99494.98;1762114;80;21125;-53
2021/08/03 08:20:48;;;;;;;0.50;0.50;;;;;;;23.21;50.98;99500.22;1761732;80;21653;-56
2021/08/03 08:23:15;;;;;;;0.80;0.40;;;;;;;23.25;51.25;99496.11;1760275;80;21055;-56
2021/08/03 08:25:42;;;;;;;1.45;0.50;;;;;;;23.31;51.37;99495.45;1759850;80;21073;-54
2021/08/03 08:28:09;;;;;;;0.50;0.40;;;;;;;23.37;51.24;99500.33;1762495;80;21069;-56
2021/08/03 08:30:36;;;;;;;0.40;0.40;;;;;;;23.45;50.88;99500.89;1760478;80;21194;-56
2021/08/03 08:33:03;;;;;;;0.60;0.50;;;;;;;23.50;50.24;99491.67;1764443;80;20998;-56
2021/08/03 08:35:30;;;;;;;0.68;0.50;;;;;;;23.54;50.55;99494.97;1769530;80;20973;-54
2021/08/03 08:37:56;;;;;;;0.40;0.40;;;;;;;23.61;50.71;99494.66;1763911;79;21053;-54
2021/08/03 08:40:22;;;;;;;0.62;0.50;;;;;;;23.70;51.06;99487.67;1765129;80;21606;-54
2021/08/03 08:42:50;;;;;;;2.00;0.50;;;;;;;23.85;51.28;99487.05;1758087;80;21555;-56
2021/08/03 08:45:17;;;;;;;0.72;0.50;;;;;;;23.86;50.14;99489.64;1758991;80;21034;-54
2021/08/03 08:47:47;;;;;;;0.50;0.50;;;;;;;23.82;49.30;99490.98;1727992;80;21104;-56
2021/08/03 08:50:16;;;;;;;0.50;0.50;;;;;;;23.81;48.34;99487.05;1761146;80;21029;-52
2021/08/03 08:52:45;;;;;;;0.50;0.50;;;;;;;23.77;47.93;99487.88;1758796;80;21035;-53
2021/08/03 08:55:11;;;;;;;0.40;0.40;;;;;;;23.82;49.60;99483.27;1763180;80;20911;-54
2021/08/03 08:57:41;;;;;;;0.40;0.40;;;;;;;23.92;49.71;99481.23;1759827;80;21125;-56
2021/08/03 09:00:09;;;;;;;0.75;0.50;;;;;;;24.05;49.67;99490.76;1762153;80;21040;-56
2021/08/03 09:02:43;;;;;;;2.98;0.40;;;;;;;24.15;48.54;99486.50;1761083;80;21124;-54
2021/08/03 09:05:11;;;;;;;2.05;0.40;;;;;;;24.22;47.51;99486.72;1758540;79;21421;-54
2021/08/03 09:07:55;;;;;;;0.70;0.40;;;;;;;24.21;45.53;99470.73;1759252;80;21121;-53
2021/08/03 09:10:48;;;;;;;0.47;0.40;;;;;;;24.22;46.84;99486.72;1761205;80;20919;-55
2021/08/03 09:13:18;;;;;;;0.50;0.50;;;;;;;24.16;46.41;99483.23;1759317;80;21358;-54
2021/08/03 09:16:00;;;;;;;1.10;0.50;;;;;;;24.04;46.24;99480.78;1760229;80;21081;-55
2021/08/03 09:18:34;;;;;;;0.40;0.40;;;;;;;24.03;47.10;99474.07;1759892;80;21014;-54
2021/08/03 09:21:01;;;;;;;0.57;0.50;;;;;;;24.08;48.58;99468.41;1762887;80;21385;-54
2021/08/03 09:23:52;;;;;;;0.40;0.40;;;;;;;24.18;48.23;99471.02;1762529;80;21437;-54
2021/08/03 09:26:43;;;;;;;0.42;0.42;;;;;;;24.18;47.29;99475.14;1760735;79;20864;-57
2021/08/03 09:29:12;;;;;;;0.40;0.40;;;;;;;24.18;46.75;99471.53;1750629;80;21043;-56
2021/08/03 09:31:41;;;;;;;1.12;0.40;;;;;;;24.13;46.27;99463.80;1760518;80;21889;-53
2021/08/03 09:34:14;;;;;;;0.50;0.42;;;;;;;24.17;46.98;99457.43;1758508;80;21215;-56
2021/08/03 09:36:49;;;;;;;0.55;0.55;;;;;;;24.22;46.50;99458.70;1759833;80;20939;-54
2021/08/03 09:39:43;;;;;;;0.40;0.40;;;;;;;24.28;46.50;99462.66;1759227;80;21074;-55
2021/08/03 09:42:14;;;;;;;0.30;0.30;;;;;;;24.37;45.89;99456.16;1757302;80;21167;-56
2021/08/03 09:45:05;;;;;;;0.60;0.40;;;;;;;24.49;46.22;99452.06;1747659;80;21093;-54
2021/08/03 09:47:33;;;;;;;0.70;0.40;;;;;;;24.60;45.72;99447.58;1739104;80;21138;-55
2021/08/03 09:50:04;;;;;;;0.40;0.40;;;;;;;24.68;45.85;99444.83;1745038;80;21018;-54
2021/08/03 09:52:35;;;;;;;0.40;0.40;;;;;;;24.72;46.68;99441.23;1749916;80;20965;-54
2021/08/03 09:55:15;;;;;;;0.50;0.40;;;;;;;24.73;46.56;99443.82;1747012;80;20908;-56
2021/08/03 09:57:44;;;;;;;0.40;0.40;;;;;;;24.77;46.74;99441.56;1746253;80;21577;-53
2021/08/03 10:00:34;;;;;;;1.05;0.50;;;;;;;24.84;46.75;99439.84;1746649;80;21830;-55
2021/08/03 10:03:04;;;;;;;1.05;0.50;;;;;;;24.94;46.92;99440.56;1747765;80;20911;-56
2021/08/03 10:05:31;;;;;;;3.00;0.50;;;;;;;25.03;47.24;99440.91;1752099;80;20876;-57
2021/08/03 10:07:58;;;;;;;0.40;0.40;;;;;;;25.06;46.67;99442.46;1749944;80;21030;-55
2021/08/03 10:10:24;;;;;;;1.62;0.40;;;;;;;25.08;45.80;99444.53;1744638;80;21029;-56
2021/08/03 10:12:52;;;;;;;0.40;0.40;;;;;;;25.09;45.38;99440.23;1749552;80;21003;-54
2021/08/03 10:15:21;;;;;;;0.50;0.45;;;;;;;25.16;45.03;99437.63;1747058;80;20946;-55
2021/08/03 10:17:49;;;;;;;1.15;0.40;;;;;;;25.26;45.76;99432.25;1750734;80;21027;-53
2021/08/03 10:20:15;;;;;;;0.72;0.40;;;;;;;25.40;44.78;99436.72;1748921;80;20899;-56
2021/08/03 10:22:56;;;;;;;0.40;0.40;;;;;;;25.49;44.21;99435.14;1748204;80;21416;-56
2021/08/03 10:25:32;;;;;;;0.40;0.40;;;;;;;25.57;44.62;99430.98;1726589;80;21165;-58
2021/08/03 10:27:58;;;;;;;1.77;0.40;;;;;;;25.67;44.59;99423.92;1729848;80;21117;-56
2021/08/03 10:30:35;;;;;;;0.40;0.35;;;;;;;25.79;44.43;99432.64;1725773;80;21088;-55
2021/08/03 10:33:15;;;;;;;0.70;0.40;;;;;;;25.87;43.05;99442.26;1745053;80;20946;-57
2021/08/03 10:35:53;;;;;;;0.35;0.30;;;;;;;25.90;41.72;99435.88;1740437;80;20904;-54
2021/08/03 10:38:20;;;;;;;0.40;0.40;;;;;;;25.89;42.83;99437.43;1745283;80;21094;-57
2021/08/03 10:40:56;;;;;;;1.95;0.40;;;;;;;25.87;41.61;99425.72;1748035;80;21035;-55
2021/08/03 10:43:39;;;;;;;0.30;0.30;;;;;;;25.82;41.28;99426.78;1741989;80;21540;-55
2021/08/03 10:46:17;;;;;;;0.88;0.50;;;;;;;25.76;42.21;99431.64;1738237;80;21076;-56
2021/08/03 10:48:43;;;;;;;0.50;0.40;;;;;;;25.76;42.14;99437.16;1741321;80;22107;-54
2021/08/03 10:51:23;;;;;;;0.40;0.40;;;;;;;25.69;42.25;99430.64;1742798;80;21049;-55
2021/08/03 10:54:09;;;;;;;0.40;0.40;;;;;;;25.62;42.05;99434.09;1741481;80;21684;-53
2021/08/03 10:57:28;;;;;;;1.75;0.40;;;;;;;25.57;42.16;99430.98;1793372;77;22698;-52
2021/08/03 10:59:59;;;;;;;0.60;0.50;;;;;;;25.52;42.61;99434.77;1766445;78;21540;-52
2021/08/03 11:02:43;;;;;;;0.40;0.30;;;;;;;25.58;41.91;99440.12;1765994;78;21135;-55
2021/08/03 11:05:26;;;;;;;0.30;0.30;;;;;;;25.62;42.12;99431.84;1762361;79;21131;-55
2021/08/03 11:07:52;;;;;;;0.82;0.30;;;;;;;25.70;42.36;99429.58;1765813;79;21629;-55
2021/08/03 11:10:25;;;;;;;0.40;0.30;;;;;;;25.70;42.24;99432.34;1768332;79;21073;-56
2021/08/03 11:12:52;;;;;;;0.70;0.30;;;;;;;25.72;42.02;99441.30;1770345;79;21365;-55
2021/08/03 11:15:33;;;;;;;2.25;0.30;;;;;;;25.71;42.35;99429.41;1769245;79;21137;-56
2021/08/03 11:18:11;;;;;;;0.40;0.40;;;;;;;25.76;42.15;99435.78;1764541;79;21492;-53
2021/08/03 11:20:48;;;;;;;1.95;0.85;;;;;;;25.77;42.20;99431.47;1767041;79;20913;-54
2021/08/03 11:23:16;;;;;;;0.40;0.40;;;;;;;25.76;41.31;99431.64;1764093;79;20971;-55
2021/08/03 11:25:45;;;;;;;0.98;0.40;;;;;;;25.67;41.53;99425.82;1766486;79;21374;-53
2021/08/03 11:28:17;;;;;;;0.93;0.40;;;;;;;25.59;41.19;99424.82;1764824;79;21583;-56
2021/08/03 11:30:45;;;;;;;0.45;0.35;;;;;;;25.58;40.97;99425.82;1762095;79;21497;-55
2021/08/03 11:33:13;;;;;;;2.92;0.35;;;;;;;25.55;41.75;99425.30;1711622;80;21029;-55
2021/08/03 11:35:39;;;;;;;0.42;0.35;;;;;;;25.59;42.33;99423.44;1705448;81;21056;-55
2021/08/03 11:38:14;;;;;;;0.40;0.30;;;;;;;25.63;41.39;99415.66;1678889;83;20911;-53
2021/08/03 11:40:42;;;;;;;0.40;0.40;;;;;;;25.69;42.29;99405.29;1679248;83;21102;-55
2021/08/03 11:43:08;;;;;;;0.40;0.40;;;;;;;25.76;42.15;99410.97;1682164;83;21053;-55
2021/08/03 11:45:39;;;;;;;1.85;0.37;;;;;;;25.81;42.04;99418.17;1683843;83;20962;-55
2021/08/03 11:48:22;;;;;;;0.40;0.40;;;;;;;25.85;42.00;99416.27;1707878;82;20894;-55